createdAt,value
2022-08-28T00:00:43.160Z,76.74
2022-08-28T00:03:15.404Z,76.72
2022-08-28T00:05:45.972Z,76.84
2022-08-28T00:08:15.737Z,76.88
2022-08-28T00:10:44.874Z,76.98
2022-08-28T00:13:19.223Z,77.13
2022-08-28T00:15:50.670Z,77.04
2022-08-28T00:18:19.802Z,77.20
2022-08-28T00:20:49.368Z,77.18
2022-08-28T00:23:18.371Z,77.34
2022-08-28T00:25:46.246Z,77.38
2022-08-28T00:28:15.361Z,77.54
2022-08-28T00:30:58.580Z,77.75
2022-08-28T00:33:33.264Z,77.78
2022-08-28T00:36:02.601Z,77.83
2022-08-28T00:38:32.279Z,77.89
2022-08-28T00:41:03.827Z,78.07
2022-08-28T00:43:35.077Z,78.22
2022-08-28T00:46:07.850Z,78.07
2022-08-28T00:48:39.857Z,78.24
2022-08-28T00:51:27.727Z,78.31
2022-08-28T00:54:01.374Z,78.44
2022-08-28T00:56:32.475Z,78.41
2022-08-28T00:59:08.011Z,78.66
2022-08-28T01:01:36.596Z,78.80
2022-08-28T01:04:06.457Z,78.70
2022-08-28T01:06:36.173Z,78.79
2022-08-28T01:09:06.579Z,78.97
2022-08-28T01:11:34.789Z,78.94
2022-08-28T01:14:05.245Z,78.97
2022-08-28T01:16:34.212Z,79.23
2022-08-28T01:19:09.810Z,79.34
2022-08-28T01:22:08.087Z,79.33
2022-08-28T01:24:39.484Z,79.58
2022-08-28T01:27:07.417Z,79.66
2022-08-28T01:29:35.602Z,79.67
2022-08-28T01:32:05.723Z,79.76
2022-08-28T01:34:36.365Z,79.83
2022-08-28T01:37:04.490Z,79.98
2022-08-28T01:39:32.773Z,79.90
2022-08-28T01:42:02.649Z,79.99
2022-08-28T01:44:30.610Z,80.02
2022-08-28T01:46:58.790Z,80.21
2022-08-28T01:49:29.540Z,80.15
2022-08-28T01:51:58.289Z,80.23
2022-08-28T01:54:27.095Z,80.31
2022-08-28T01:56:55.375Z,80.32
2022-08-28T01:59:23.438Z,80.41
2022-08-28T02:01:51.282Z,80.64
2022-08-28T02:04:19.481Z,80.76
2022-08-28T02:06:50.982Z,80.89
2022-08-28T02:09:19.392Z,80.76
2022-08-28T02:11:47.485Z,80.90
2022-08-28T02:14:17.058Z,80.96
2022-08-28T02:16:44.862Z,80.99
2022-08-28T02:19:12.744Z,81.02
2022-08-28T02:21:40.619Z,81.18
2022-08-28T02:24:09.123Z,81.22
2022-08-28T02:26:36.971Z,81.32
2022-08-28T02:29:05.967Z,81.41
2022-08-28T02:31:33.832Z,81.52
2022-08-28T02:34:01.698Z,81.63
2022-08-28T02:36:45.290Z,81.63
2022-08-28T02:39:13.169Z,81.79
2022-08-28T02:41:41.511Z,81.87
2022-08-28T02:44:09.659Z,81.75
2022-08-28T02:46:37.516Z,82.10
2022-08-28T02:49:05.426Z,82.13
2022-08-28T02:51:33.660Z,82.12
2022-08-28T02:54:02.367Z,82.17
2022-08-28T02:56:31.390Z,82.26
2022-08-28T02:58:59.261Z,82.33
2022-08-28T03:01:27.201Z,82.38
2022-08-28T03:03:55.037Z,82.44
2022-08-28T03:06:23.209Z,82.61
2022-08-28T03:08:51.067Z,82.51
2022-08-28T03:11:19.257Z,82.55
2022-08-28T03:13:47.162Z,82.69
2022-08-28T03:16:15.097Z,82.79
2022-08-28T03:18:42.998Z,82.80
2022-08-28T03:21:11.990Z,82.75
2022-08-28T03:23:40.138Z,82.88
2022-08-28T03:26:16.642Z,82.95
2022-08-28T03:28:48.223Z,82.99
2022-08-28T03:31:19.870Z,82.92
2022-08-28T03:33:48.435Z,83.05
2022-08-28T03:36:21.657Z,83.15
2022-08-28T03:38:52.119Z,83.20
2022-08-28T03:41:22.111Z,83.16
2022-08-28T03:43:50.893Z,83.17
2022-08-28T03:46:24.007Z,83.06
2022-08-28T03:48:53.834Z,83.28
2022-08-28T03:51:29.646Z,83.41
2022-08-28T03:53:59.614Z,83.19
2022-08-28T03:56:29.714Z,83.38
2022-08-28T03:59:00.345Z,83.31
2022-08-28T04:01:29.703Z,83.35
2022-08-28T04:03:57.666Z,83.34
2022-08-28T04:06:25.915Z,83.41
2022-08-28T04:08:54.164Z,83.44
2022-08-28T04:11:22.967Z,83.58
2022-08-28T04:13:50.833Z,83.38
2022-08-28T04:16:19.623Z,83.45
2022-08-28T04:18:49.395Z,83.75
2022-08-28T04:21:21.196Z,83.72
2022-08-28T04:23:49.919Z,83.70
2022-08-28T04:26:21.073Z,83.78
2022-08-28T04:28:50.097Z,83.65
2022-08-28T04:31:31.951Z,83.68
2022-08-28T04:34:02.611Z,83.73
2022-08-28T04:36:30.994Z,83.73
2022-08-28T04:38:58.944Z,83.77
2022-08-28T04:41:27.845Z,83.83
2022-08-28T04:43:57.640Z,83.93
2022-08-28T04:46:26.783Z,84.06
2022-08-28T04:48:59.823Z,84.01
2022-08-28T04:51:31.479Z,83.96
2022-08-28T04:53:59.689Z,83.84
2022-08-28T04:56:27.561Z,84.00
2022-08-28T04:58:55.528Z,84.03
2022-08-28T05:01:24.850Z,83.90
2022-08-28T05:04:00.939Z,84.04
2022-08-28T05:06:30.177Z,83.89
2022-08-28T05:09:01.479Z,83.85
2022-08-28T05:11:34.395Z,83.91
2022-08-28T05:14:07.228Z,84.00
2022-08-28T05:16:53.230Z,83.98
2022-08-28T05:19:21.922Z,84.04
2022-08-28T05:21:51.397Z,84.00
2022-08-28T05:24:19.840Z,83.94
2022-08-28T05:26:48.771Z,84.02
2022-08-28T05:29:17.605Z,83.89
2022-08-28T05:31:46.447Z,83.93
2022-08-28T05:34:15.570Z,84.04
2022-08-28T05:36:44.545Z,84.10
2022-08-28T05:39:13.487Z,83.98
2022-08-28T05:41:43.449Z,83.86
2022-08-28T05:44:13.667Z,83.86
2022-08-28T05:46:45.055Z,83.81
2022-08-28T05:49:13.726Z,83.97
2022-08-28T05:51:43.230Z,83.86
2022-08-28T05:54:15.010Z,83.89
2022-08-28T05:56:45.527Z,83.88
2022-08-28T05:59:14.319Z,83.96
2022-08-28T06:01:46.725Z,84.23
2022-08-28T06:04:27.543Z,84.14
2022-08-28T06:06:56.319Z,83.95
2022-08-28T06:09:29.672Z,83.69
2022-08-28T06:12:01.918Z,83.60
2022-08-28T06:14:31.787Z,83.57
2022-08-28T06:17:01.777Z,83.15
2022-08-28T06:19:32.470Z,83.07
2022-08-28T06:22:07.062Z,82.83
2022-08-28T06:24:35.817Z,83.05
2022-08-28T06:27:03.769Z,82.84
2022-08-28T06:29:31.745Z,82.88
2022-08-28T06:32:01.952Z,82.86
2022-08-28T06:34:30.132Z,82.51
2022-08-28T06:36:58.150Z,82.32
2022-08-28T06:39:26.207Z,82.07
2022-08-28T06:41:54.146Z,81.79
2022-08-28T06:44:23.036Z,81.61
2022-08-28T06:46:54.204Z,81.71
2022-08-28T06:49:22.764Z,81.33
2022-08-28T06:51:50.888Z,80.94
2022-08-28T06:54:22.648Z,80.93
2022-08-28T06:56:52.407Z,80.72
2022-08-28T06:59:21.913Z,80.26
2022-08-28T07:01:49.874Z,80.40
2022-08-28T07:04:17.817Z,80.12
2022-08-28T07:06:47.081Z,80.11
2022-08-28T07:09:15.542Z,79.87
2022-08-28T07:11:49.124Z,79.46
2022-08-28T07:14:17.438Z,79.26
2022-08-28T07:16:45.349Z,79.14
2022-08-28T07:19:14.454Z,78.90
2022-08-28T07:21:45.091Z,78.50
2022-08-28T07:24:14.966Z,77.70
2022-08-28T07:26:45.077Z,78.06
2022-08-28T07:29:14.648Z,78.20
2022-08-28T07:31:47.147Z,77.70
2022-08-28T07:34:16.751Z,77.76
2022-08-28T07:36:44.954Z,77.47
2022-08-28T07:39:16.275Z,77.20
2022-08-28T07:41:45.169Z,77.14
2022-08-28T07:44:34.388Z,77.47
2022-08-28T07:47:05.952Z,77.27
2022-08-28T07:49:35.268Z,77.15
2022-08-28T07:52:07.001Z,77.19
2022-08-28T07:54:36.731Z,76.83
2022-08-28T07:57:05.576Z,76.74
2022-08-28T07:59:36.962Z,76.59
2022-08-28T08:02:07.002Z,76.28
2022-08-28T08:04:35.488Z,75.80
2022-08-28T08:07:05.142Z,75.64
2022-08-28T08:09:38.488Z,75.18
2022-08-28T08:12:07.928Z,75.18
2022-08-28T08:14:42.883Z,75.70
2022-08-28T08:17:11.557Z,75.57
2022-08-28T08:19:39.828Z,75.44
2022-08-28T08:22:07.693Z,74.63
2022-08-28T08:24:36.017Z,74.90
2022-08-28T08:27:04.255Z,75.05
2022-08-28T08:29:36.041Z,75.07
2022-08-28T08:32:10.485Z,74.95
2022-08-28T08:34:43.108Z,75.02
2022-08-28T08:37:13.478Z,74.95
2022-08-28T08:39:43.085Z,74.95
2022-08-28T08:42:27.941Z,74.98
2022-08-28T08:44:59.138Z,74.55
2022-08-28T08:47:34.533Z,74.59
2022-08-28T08:50:08.179Z,74.76
2022-08-28T08:52:52.730Z,74.64
2022-08-28T08:55:32.170Z,74.27
2022-08-28T08:58:09.490Z,74.29
2022-08-28T09:01:06.723Z,74.29
2022-08-28T09:03:55.369Z,74.19
2022-08-28T09:06:44.736Z,74.28
2022-08-28T09:09:30.559Z,74.20
2022-08-28T09:12:04.025Z,74.26
2022-08-28T09:14:49.938Z,74.00
2022-08-28T09:17:21.794Z,73.88
2022-08-28T09:19:49.776Z,73.57
2022-08-28T09:22:17.585Z,73.25
2022-08-28T09:24:45.501Z,73.37
2022-08-28T09:27:34.052Z,73.33
2022-08-28T09:30:12.461Z,72.87
2022-08-28T09:32:44.688Z,72.82
2022-08-28T09:35:23.759Z,72.84
2022-08-28T09:37:51.910Z,72.49
2022-08-28T09:40:22.328Z,72.42
2022-08-28T09:43:26.925Z,72.13
2022-08-28T09:46:15.759Z,72.08
2022-08-28T09:48:47.559Z,71.72
2022-08-28T09:51:21.636Z,71.61
2022-08-28T09:54:09.241Z,71.39
2022-08-28T09:56:40.898Z,71.54
2022-08-28T09:59:14.427Z,71.55
2022-08-28T10:01:49.493Z,71.45
2022-08-28T10:04:50.470Z,71.54
2022-08-28T10:07:57.899Z,71.51
2022-08-28T10:10:43.436Z,71.46
2022-08-28T10:13:20.605Z,71.59
2022-08-28T10:15:51.617Z,71.76
2022-08-28T10:18:50.194Z,71.78
2022-08-28T10:21:26.833Z,71.79
2022-08-28T10:24:26.041Z,71.74
2022-08-28T10:27:04.682Z,71.35
2022-08-28T10:29:49.647Z,71.76
2022-08-28T10:32:42.488Z,72.12
2022-08-28T10:35:23.032Z,72.26
2022-08-28T10:38:17.426Z,72.10
2022-08-28T10:40:51.253Z,72.09
2022-08-28T10:43:48.088Z,72.26
2022-08-28T10:46:27.249Z,72.21
2022-08-28T10:49:04.371Z,72.24
2022-08-28T10:51:43.592Z,72.38
2022-08-28T10:54:23.785Z,72.43
2022-08-28T10:57:01.353Z,72.48
2022-08-28T10:59:32.556Z,72.33
2022-08-28T11:02:07.160Z,72.54
2022-08-28T11:04:40.969Z,72.48
2022-08-28T11:07:12.810Z,72.47
2022-08-28T11:09:49.147Z,72.65
2022-08-28T11:12:20.045Z,72.77
2022-08-28T11:14:51.184Z,72.59
2022-08-28T11:17:25.440Z,72.71
2022-08-28T11:19:58.824Z,72.81
2022-08-28T11:22:36.277Z,73.25
2022-08-28T11:25:26.709Z,73.55
2022-08-28T11:28:35.867Z,73.63
2022-08-28T11:31:29.143Z,74.06
2022-08-28T11:34:00.252Z,74.37
2022-08-28T11:36:37.670Z,73.86
2022-08-28T11:39:20.213Z,73.52
2022-08-28T11:42:35.310Z,73.56
2022-08-28T11:45:05.154Z,73.47
2022-08-28T11:47:38.128Z,72.88
2022-08-28T11:50:54.653Z,72.92
2022-08-28T11:53:52.330Z,73.48
2022-08-28T11:57:01.764Z,73.23
2022-08-28T12:00:08.990Z,72.91
2022-08-28T12:03:06.926Z,73.08
2022-08-28T12:05:55.199Z,72.28
2022-08-28T12:08:48.167Z,72.50
2022-08-28T12:11:41.163Z,72.78
2022-08-28T12:14:47.437Z,72.89
2022-08-28T12:17:31.429Z,72.79
2022-08-28T12:20:27.261Z,72.61
2022-08-28T12:22:59.892Z,72.66
2022-08-28T12:25:30.810Z,72.54
2022-08-28T12:28:26.223Z,72.82
2022-08-28T12:31:09.409Z,73.16
2022-08-28T12:34:04.036Z,73.13
2022-08-28T12:36:35.381Z,73.12
2022-08-28T12:39:03.323Z,73.06
2022-08-28T12:41:32.222Z,72.81
2022-08-28T12:44:02.005Z,72.69
2022-08-28T12:46:48.848Z,72.76
2022-08-28T12:49:32.203Z,72.71
2022-08-28T12:52:34.264Z,72.85
2022-08-28T12:55:02.589Z,72.67
2022-08-28T12:57:44.173Z,72.80
2022-08-28T13:00:20.801Z,72.95
2022-08-28T13:02:50.936Z,73.10
2022-08-28T13:05:32.444Z,73.00
2022-08-28T13:08:06.801Z,72.72
2022-08-28T13:10:40.589Z,72.76
2022-08-28T13:13:18.671Z,72.88
2022-08-28T13:15:54.521Z,72.88
2022-08-28T13:19:10.817Z,72.62
2022-08-28T13:22:00.475Z,72.29
2022-08-28T13:24:43.929Z,72.51
2022-08-28T13:27:23.709Z,72.63
2022-08-28T13:30:05.619Z,72.75
2022-08-28T13:32:37.046Z,72.77
2022-08-28T13:35:30.998Z,72.74
2022-08-28T13:38:00.725Z,72.91
2022-08-28T13:43:28.373Z,73.22
2022-08-28T13:45:56.564Z,73.33
2022-08-28T13:48:27.389Z,73.32
2022-08-28T13:51:07.517Z,73.43
2022-08-28T13:53:38.792Z,73.68
2022-08-28T13:56:10.082Z,73.64
2022-08-28T13:58:37.990Z,73.57
2022-08-28T14:01:05.944Z,73.68
2022-08-28T14:03:38.604Z,73.71
2022-08-28T14:06:17.210Z,73.93
2022-08-28T14:08:49.701Z,73.81
2022-08-28T14:11:20.580Z,73.92
2022-08-28T14:13:55.645Z,74.06
2022-08-28T14:16:27.034Z,73.97
2022-08-28T14:18:55.186Z,73.91
2022-08-28T14:21:26.754Z,73.92
2022-08-28T14:23:55.542Z,74.07
2022-08-28T14:26:27.026Z,74.25
2022-08-28T14:28:59.073Z,74.40
2022-08-28T14:31:28.544Z,74.43
2022-08-28T14:33:58.757Z,74.48
2022-08-28T14:36:30.027Z,74.20
2022-08-28T14:39:05.360Z,74.41
2022-08-28T14:41:35.641Z,74.49
2022-08-28T14:44:04.858Z,74.47
2022-08-28T14:46:36.134Z,74.30
2022-08-28T14:49:09.181Z,74.46
2022-08-28T14:51:41.405Z,74.60
2022-08-28T14:54:11.533Z,74.55
2022-08-28T14:56:41.692Z,74.61
2022-08-28T14:59:17.555Z,74.64
2022-08-28T15:01:52.483Z,74.89
2022-08-28T15:04:24.288Z,75.05
2022-08-28T15:06:58.575Z,75.16
2022-08-28T15:09:27.588Z,75.31
2022-08-28T15:11:55.389Z,75.45
2022-08-28T15:14:23.313Z,75.74
2022-08-28T15:16:53.620Z,75.85
2022-08-28T15:19:23.459Z,75.90
2022-08-28T15:21:54.871Z,76.16
2022-08-28T15:24:26.980Z,76.35
2022-08-28T15:26:55.431Z,76.49
2022-08-28T15:29:26.793Z,76.38
2022-08-28T15:31:56.987Z,76.59
2022-08-28T15:34:28.521Z,77.01
2022-08-28T15:36:58.732Z,77.09
2022-08-28T15:39:48.577Z,77.01
2022-08-28T15:42:19.535Z,77.33
2022-08-28T15:44:48.122Z,77.62
2022-08-28T15:47:16.700Z,77.71
2022-08-28T15:49:50.057Z,77.73
2022-08-28T15:52:20.798Z,77.86
2022-08-28T15:54:49.830Z,78.09
2022-08-28T15:57:20.390Z,78.21
2022-08-28T15:59:50.893Z,78.39
2022-08-28T16:02:22.499Z,78.32
2022-08-28T16:04:54.008Z,78.45
2022-08-28T16:07:25.446Z,78.59
2022-08-28T16:09:54.130Z,78.76
2022-08-28T16:12:22.702Z,78.68
2022-08-28T16:14:50.880Z,78.65
2022-08-28T16:17:19.176Z,79.01
2022-08-28T16:19:49.390Z,78.91
2022-08-28T16:22:20.462Z,79.29
2022-08-28T16:24:48.901Z,79.06
2022-08-28T16:27:18.778Z,79.10
2022-08-28T16:29:49.642Z,79.25
2022-08-28T16:32:21.573Z,79.32
2022-08-28T16:34:50.596Z,79.20
2022-08-28T16:37:20.907Z,79.12
2022-08-28T16:39:56.226Z,79.42
2022-08-28T16:42:30.968Z,79.56
2022-08-28T16:45:02.168Z,79.45
2022-08-28T16:47:33.352Z,79.65
2022-08-28T16:50:10.886Z,79.68
2022-08-28T16:52:40.056Z,79.66
2022-08-28T16:55:10.684Z,79.65
2022-08-28T16:57:42.849Z,79.83
2022-08-28T17:00:15.638Z,79.96
2022-08-28T17:02:46.863Z,80.10
2022-08-28T17:05:17.452Z,80.02
2022-08-28T17:07:47.347Z,80.24
2022-08-28T17:10:19.831Z,80.26
2022-08-28T17:12:48.257Z,80.22
2022-08-28T17:15:17.184Z,80.30
2022-08-28T17:17:47.063Z,80.62
2022-08-28T17:20:35.031Z,80.41
2022-08-28T17:23:03.564Z,80.65
2022-08-28T17:25:33.631Z,80.78
2022-08-28T17:28:01.493Z,80.88
2022-08-28T17:30:30.891Z,80.97
2022-08-28T17:33:01.964Z,80.89
2022-08-28T17:35:31.348Z,81.03
2022-08-28T17:38:13.388Z,81.30
2022-08-28T17:40:53.200Z,81.23
2022-08-28T17:43:30.182Z,81.41
2022-08-28T17:45:58.052Z,81.35
2022-08-28T17:48:29.367Z,81.55
2022-08-28T17:50:58.536Z,81.49
2022-08-28T17:53:29.836Z,81.51
2022-08-28T17:55:59.188Z,81.54
2022-08-28T17:58:31.672Z,81.57
2022-08-28T18:01:04.970Z,81.55
2022-08-28T18:03:36.700Z,81.73
2022-08-28T18:06:15.369Z,81.76
2022-08-28T18:08:44.831Z,81.73
2022-08-28T18:11:14.241Z,81.81
2022-08-28T18:13:42.633Z,81.81
2022-08-28T18:16:10.727Z,81.77
2022-08-28T18:18:44.692Z,81.82
2022-08-28T18:21:19.160Z,82.42
2022-08-28T18:23:48.332Z,82.49
2022-08-28T18:26:22.574Z,82.38
2022-08-28T18:29:16.754Z,82.56
2022-08-28T18:31:45.591Z,82.17
2022-08-28T18:34:18.283Z,82.25
2022-08-28T18:36:45.286Z,82.12
2022-08-28T18:39:29.345Z,82.60
2022-08-28T18:42:05.841Z,82.39
2022-08-28T18:44:59.689Z,82.30
2022-08-28T18:47:30.689Z,82.15
2022-08-28T18:50:01.041Z,82.25
2022-08-28T18:52:39.849Z,82.77
2022-08-28T18:55:14.327Z,82.29
2022-08-28T18:57:48.450Z,81.92
2022-08-28T19:00:19.730Z,81.95
2022-08-28T19:02:54.469Z,82.31
2022-08-28T19:05:29.439Z,81.68
2022-08-28T19:08:05.447Z,81.62
2022-08-28T19:10:35.166Z,82.21
2022-08-28T19:13:06.236Z,82.14
2022-08-28T19:15:39.994Z,82.25
2022-08-28T19:18:14.321Z,82.29
2022-08-28T19:20:48.578Z,82.11
2022-08-28T19:23:21.064Z,81.86
2022-08-28T19:25:49.293Z,81.61
2022-08-28T19:28:17.288Z,81.61
2022-08-28T19:30:51.859Z,81.56
2022-08-28T19:33:46.598Z,81.69
2022-08-28T19:36:20.993Z,81.39
2022-08-28T19:38:49.206Z,81.41
2022-08-28T19:41:23.068Z,81.51
2022-08-28T19:43:53.954Z,81.38
2022-08-28T19:46:27.934Z,81.48
2022-08-28T19:48:56.952Z,81.51
2022-08-28T19:51:25.360Z,81.36
2022-08-28T19:53:58.286Z,81.60
2022-08-28T19:56:33.312Z,81.78
2022-08-28T19:59:03.003Z,81.70
2022-08-28T20:01:35.626Z,81.84
2022-08-28T20:04:05.626Z,81.67
2022-08-28T20:06:40.863Z,81.93
2022-08-28T20:09:12.927Z,82.08
2022-08-28T20:11:47.046Z,82.07
2022-08-28T20:14:17.632Z,82.12
2022-08-28T20:16:51.002Z,82.08
2022-08-28T20:19:20.323Z,82.08
2022-08-28T20:21:50.049Z,82.25
2022-08-28T20:24:24.271Z,82.33
2022-08-28T20:26:53.349Z,82.59
2022-08-28T20:29:21.807Z,82.59
2022-08-28T20:31:49.921Z,82.64
2022-08-28T20:34:20.684Z,82.80
2022-08-28T20:36:49.138Z,82.91
2022-08-28T20:39:18.386Z,82.87
2022-08-28T20:41:49.502Z,83.00
2022-08-28T20:44:19.980Z,83.14
2022-08-28T20:46:51.391Z,83.21
2022-08-28T20:49:24.005Z,83.39
2022-08-28T20:52:01.011Z,83.62
2022-08-28T20:54:32.542Z,83.61
2022-08-28T20:57:07.926Z,83.50
2022-08-28T20:59:40.193Z,83.82
2022-08-28T21:02:16.729Z,83.82
2022-08-28T21:04:46.949Z,83.94
2022-08-28T21:07:17.289Z,84.09
2022-08-28T21:10:04.031Z,84.19
2022-08-28T21:12:41.029Z,84.26
2022-08-28T21:15:12.653Z,84.28
2022-08-28T21:17:41.729Z,84.53
2022-08-28T21:20:14.386Z,84.40
2022-08-28T21:22:43.637Z,84.59
2022-08-28T21:25:13.549Z,84.49
2022-08-28T21:27:43.488Z,84.65
2022-08-28T21:30:17.648Z,84.74
2022-08-28T21:32:50.098Z,84.90
2022-08-28T21:35:21.961Z,84.90
2022-08-28T21:37:51.236Z,84.94
2022-08-28T21:40:20.049Z,84.75
2022-08-28T21:42:50.922Z,84.79
2022-08-28T21:45:22.469Z,84.76
2022-08-28T21:47:50.332Z,84.87
2022-08-28T21:50:20.817Z,84.49
2022-08-28T21:52:48.649Z,84.66
2022-08-28T21:55:17.637Z,84.39
2022-08-28T21:57:48.542Z,84.49
2022-08-28T22:00:20.023Z,84.54
2022-08-28T22:02:48.727Z,84.24
2022-08-28T22:05:18.511Z,84.36
2022-08-28T22:07:46.784Z,84.29
2022-08-28T22:10:15.173Z,84.36
2022-08-28T22:12:45.777Z,84.59
2022-08-28T22:15:13.600Z,84.62
2022-08-28T22:17:41.760Z,84.70
2022-08-28T22:20:09.856Z,84.61
2022-08-28T22:22:57.121Z,84.67
2022-08-28T22:25:28.260Z,84.63
2022-08-28T22:27:56.790Z,84.59
2022-08-28T22:30:26.765Z,84.67
2022-08-28T22:32:54.913Z,84.61
2022-08-28T22:35:22.845Z,84.78
2022-08-28T22:37:50.675Z,84.70
2022-08-28T22:40:19.035Z,84.67
2022-08-28T22:42:47.747Z,84.72
2022-08-28T22:45:17.763Z,84.63
2022-08-28T22:47:45.533Z,84.69
2022-08-28T22:50:13.392Z,84.82
2022-08-28T22:52:43.415Z,84.77
2022-08-28T22:55:13.338Z,84.64
2022-08-28T22:57:42.404Z,84.52
2022-08-28T23:00:14.467Z,84.89
2022-08-28T23:02:44.877Z,84.72
2022-08-28T23:05:14.897Z,84.86
2022-08-28T23:07:44.222Z,84.95
2022-08-28T23:10:17.177Z,84.96
2022-08-28T23:12:45.451Z,84.90
2022-08-28T23:15:19.062Z,85.21
2022-08-28T23:17:47.543Z,85.07
2022-08-28T23:20:23.923Z,85.05
2022-08-28T23:22:58.100Z,85.33
2022-08-28T23:25:28.095Z,85.41
2022-08-28T23:28:01.477Z,85.23
2022-08-28T23:30:32.648Z,85.24
2022-08-28T23:33:01.462Z,85.35
2022-08-28T23:35:32.440Z,85.14
2022-08-28T23:38:00.853Z,85.13
2022-08-28T23:40:30.903Z,85.28
2022-08-28T23:42:59.717Z,85.21
2022-08-28T23:45:29.314Z,85.26
2022-08-28T23:47:58.095Z,85.19
2022-08-28T23:50:29.389Z,85.08
2022-08-28T23:52:57.264Z,84.98
2022-08-28T23:55:26.982Z,84.96
2022-08-28T23:57:55.802Z,84.98
